createdAt,value
2017-11-30T00:00:02.124Z,93.23
2017-11-30T00:01:02.140Z,92.47
2017-11-30T00:02:02.147Z,91.43
2017-11-30T00:03:02.156Z,91.53
2017-11-30T00:04:02.172Z,90.67
2017-11-30T00:05:02.188Z,90.58
2017-11-30T00:06:02.194Z,90.39
2017-11-30T00:07:02.214Z,90.77
2017-11-30T00:08:02.223Z,91.34
2017-11-30T00:09:02.232Z,92.10
2017-11-30T00:10:02.247Z,92.38
2017-11-30T00:11:02.260Z,91.81
2017-11-30T00:12:02.274Z,91.05
2017-11-30T00:13:02.281Z,90.86
2017-11-30T00:14:02.298Z,90.48
2017-11-30T00:15:02.309Z,89.92
2017-11-30T00:16:02.317Z,90.30
2017-11-30T00:17:02.330Z,91.05
2017-11-30T00:18:02.345Z,90.86
2017-11-30T00:19:02.358Z,90.39
2017-11-30T00:20:02.372Z,90.01
2017-11-30T00:21:02.382Z,90.30
2017-11-30T00:22:02.474Z,90.48
2017-11-30T00:23:02.417Z,90.11
2017-11-30T00:24:02.419Z,90.39
2017-11-30T00:25:02.432Z,90.30
2017-11-30T00:26:02.448Z,90.48
2017-11-30T00:27:02.456Z,91.05
2017-11-30T00:28:02.469Z,91.15
2017-11-30T00:29:02.484Z,90.96
2017-11-30T00:30:02.500Z,91.15
2017-11-30T00:31:02.511Z,91.53
2017-11-30T00:32:02.541Z,92.00
2017-11-30T00:33:02.537Z,91.34
2017-11-30T00:34:02.549Z,91.24
2017-11-30T00:35:02.556Z,90.39
2017-11-30T00:36:02.572Z,90.39
2017-11-30T00:37:02.584Z,91.24
2017-11-30T00:38:02.596Z,91.62
2017-11-30T00:39:02.610Z,91.72
2017-11-30T00:40:02.622Z,91.72
2017-11-30T00:41:02.634Z,91.62
2017-11-30T00:42:02.648Z,91.15
2017-11-30T00:43:02.661Z,90.81
2017-11-30T00:44:02.688Z,90.20
2017-11-30T00:45:02.689Z,90.58
2017-11-30T00:46:02.699Z,90.39
2017-11-30T00:47:02.709Z,90.48
2017-11-30T00:48:02.773Z,89.77
2017-11-30T00:49:02.735Z,89.49
2017-11-30T00:50:02.749Z,89.20
2017-11-30T00:51:02.759Z,88.92
2017-11-30T00:52:02.773Z,89.01
2017-11-30T00:53:02.783Z,89.77
2017-11-30T00:54:02.796Z,89.68
2017-11-30T00:55:02.810Z,89.20
2017-11-30T00:56:02.826Z,89.01
2017-11-30T00:57:02.833Z,88.54
2017-11-30T00:58:02.847Z,89.20
2017-11-30T00:59:02.859Z,89.30
2017-11-30T01:00:02.876Z,89.68
2017-11-30T01:01:02.890Z,89.68
2017-11-30T01:02:02.901Z,90.25
2017-11-30T01:03:02.917Z,89.87
2017-11-30T01:04:02.923Z,89.58
2017-11-30T01:05:02.935Z,89.96
2017-11-30T01:06:02.947Z,89.49
2017-11-30T01:07:02.964Z,89.96
2017-11-30T01:08:02.973Z,89.49
2017-11-30T01:09:02.986Z,89.58
2017-11-30T01:10:03.003Z,89.77
2017-11-30T01:11:03.018Z,90.34
2017-11-30T01:12:03.025Z,90.06
2017-11-30T01:13:03.044Z,89.96
2017-11-30T01:14:03.049Z,89.87
2017-11-30T01:15:03.062Z,89.20
2017-11-30T01:16:03.077Z,89.11
2017-11-30T01:17:03.087Z,88.45
2017-11-30T01:18:03.103Z,88.45
2017-11-30T01:19:03.116Z,88.54
2017-11-30T01:20:03.131Z,88.54
2017-11-30T01:21:03.189Z,89.30
2017-11-30T01:22:03.154Z,89.49
2017-11-30T01:23:03.169Z,89.68
2017-11-30T01:24:03.176Z,89.01
2017-11-30T01:25:03.191Z,89.30
2017-11-30T01:26:03.203Z,89.20
2017-11-30T01:27:03.220Z,89.20
2017-11-30T01:28:03.228Z,89.30
2017-11-30T01:29:03.246Z,89.58
2017-11-30T01:30:03.258Z,89.58
2017-11-30T01:31:03.272Z,90.34
2017-11-30T01:32:03.281Z,89.87
2017-11-30T01:33:03.294Z,89.68
2017-11-30T01:34:03.308Z,89.68
2017-11-30T01:35:03.319Z,89.06
2017-11-30T01:36:03.332Z,88.96
2017-11-30T01:37:03.345Z,88.40
2017-11-30T01:38:03.356Z,88.02
2017-11-30T01:39:03.370Z,88.11
2017-11-30T01:40:03.382Z,87.92
2017-11-30T01:41:03.394Z,88.40
2017-11-30T01:42:03.411Z,88.40
2017-11-30T01:43:03.419Z,87.83
2017-11-30T01:44:03.431Z,88.02
2017-11-30T01:45:03.454Z,88.78
2017-11-30T01:46:03.461Z,88.64
2017-11-30T01:47:03.473Z,88.96
2017-11-30T01:48:03.490Z,88.78
2017-11-30T01:49:03.497Z,88.68
2017-11-30T01:50:03.512Z,88.59
2017-11-30T01:51:03.524Z,88.21
2017-11-30T01:52:03.538Z,88.02
2017-11-30T01:53:03.553Z,88.59
2017-11-30T01:54:03.602Z,88.30
2017-11-30T01:55:03.612Z,88.11
2017-11-30T01:56:03.686Z,88.40
2017-11-30T01:57:03.611Z,87.92
2017-11-30T01:58:03.615Z,87.92
2017-11-30T01:59:03.631Z,88.02
2017-11-30T02:00:03.646Z,88.11
2017-11-30T02:01:03.662Z,88.96
2017-11-30T02:02:03.670Z,89.06
2017-11-30T02:03:03.682Z,89.34
2017-11-30T02:04:03.695Z,89.77
2017-11-30T02:05:03.708Z,90.44
2017-11-30T02:06:03.751Z,89.96
2017-11-30T02:07:03.734Z,90.15
2017-11-30T02:08:04.490Z,90.06
2017-11-30T02:09:03.760Z,90.53
2017-11-30T02:10:03.774Z,90.25
2017-11-30T02:11:03.787Z,89.96
2017-11-30T02:12:03.803Z,90.53
2017-11-30T02:13:03.811Z,90.72
2017-11-30T02:14:03.827Z,90.81
2017-11-30T02:15:03.839Z,90.63
2017-11-30T02:16:03.853Z,91.76
2017-11-30T02:17:03.865Z,91.67
2017-11-30T02:18:03.878Z,92.33
2017-11-30T02:19:03.891Z,92.33
2017-11-30T02:20:03.914Z,92.71
2017-11-30T02:21:03.919Z,93.08
2017-11-30T02:22:03.933Z,92.71
2017-11-30T02:23:03.944Z,93.18
2017-11-30T02:24:03.956Z,93.37
2017-11-30T02:25:03.970Z,93.08
2017-11-30T02:26:03.987Z,92.90
2017-11-30T02:27:03.994Z,92.61
2017-11-30T02:28:04.010Z,92.90
2017-11-30T02:29:04.024Z,92.33
2017-11-30T02:30:04.037Z,91.19
2017-11-30T02:31:04.059Z,90.53
2017-11-30T02:32:04.059Z,90.63
2017-11-30T02:33:04.076Z,90.91
2017-11-30T02:34:04.086Z,90.81
2017-11-30T02:35:04.099Z,90.44
2017-11-30T02:36:04.111Z,90.15
2017-11-30T02:37:04.143Z,89.87
2017-11-30T02:38:04.137Z,90.44
2017-11-30T02:39:04.149Z,90.53
2017-11-30T02:40:04.162Z,89.87
2017-11-30T02:41:04.172Z,90.06
2017-11-30T02:42:04.186Z,90.06
2017-11-30T02:43:04.199Z,89.91
2017-11-30T02:44:04.210Z,89.68
2017-11-30T02:45:04.226Z,89.87
2017-11-30T02:46:04.238Z,90.77
2017-11-30T02:47:04.256Z,92.33
2017-11-30T02:48:04.264Z,92.14
2017-11-30T02:49:04.282Z,92.66
2017-11-30T02:50:04.288Z,92.94
2017-11-30T02:51:04.301Z,93.51
2017-11-30T02:52:04.313Z,93.13
2017-11-30T02:53:04.332Z,92.85
2017-11-30T02:54:04.344Z,92.57
2017-11-30T02:55:04.359Z,93.13
2017-11-30T02:56:04.370Z,93.13
2017-11-30T02:57:04.375Z,93.27
2017-11-30T02:58:04.393Z,93.13
2017-11-30T02:59:04.410Z,93.04
2017-11-30T03:00:04.416Z,92.94
2017-11-30T03:01:04.428Z,92.90
2017-11-30T03:02:04.441Z,92.33
2017-11-30T03:03:04.456Z,91.67
2017-11-30T03:04:04.468Z,91.38
2017-11-30T03:05:04.479Z,91.86
2017-11-30T03:06:04.492Z,91.29
2017-11-30T03:07:04.504Z,92.05
2017-11-30T03:08:04.519Z,91.95
2017-11-30T03:09:04.529Z,92.14
2017-11-30T03:10:04.541Z,92.24
2017-11-30T03:11:04.553Z,91.67
2017-11-30T03:12:04.568Z,91.00
2017-11-30T03:13:04.578Z,90.44
2017-11-30T03:14:04.595Z,90.63
2017-11-30T03:15:04.604Z,90.81
2017-11-30T03:16:04.621Z,90.81
2017-11-30T03:17:04.632Z,90.91
2017-11-30T03:18:04.643Z,90.91
2017-11-30T03:19:04.659Z,90.72
2017-11-30T03:20:04.669Z,91.10
2017-11-30T03:21:04.683Z,90.25
2017-11-30T03:22:04.696Z,89.77
2017-11-30T03:23:04.711Z,89.53
2017-11-30T03:24:04.720Z,89.77
2017-11-30T03:25:04.732Z,90.01
2017-11-30T03:26:04.747Z,89.68
2017-11-30T03:27:04.759Z,89.49
2017-11-30T03:28:04.775Z,89.49
2017-11-30T03:29:04.792Z,89.49
2017-11-30T03:30:04.798Z,89.58
2017-11-30T03:31:04.808Z,89.77
2017-11-30T03:32:04.831Z,89.77
2017-11-30T03:33:04.842Z,89.30
2017-11-30T03:34:04.850Z,89.68
2017-11-30T03:35:04.861Z,89.87
2017-11-30T03:36:04.876Z,90.34
2017-11-30T03:37:04.889Z,90.91
2017-11-30T03:38:04.900Z,90.91
2017-11-30T03:39:04.917Z,90.81
2017-11-30T03:40:04.925Z,90.25
2017-11-30T03:41:04.938Z,89.96
2017-11-30T03:42:04.955Z,89.68
2017-11-30T03:43:04.966Z,89.87
2017-11-30T03:44:04.981Z,89.30
2017-11-30T03:45:04.989Z,89.15
2017-11-30T03:46:05.005Z,88.96
2017-11-30T03:47:05.016Z,89.30
2017-11-30T03:48:05.031Z,89.15
2017-11-30T03:49:05.042Z,88.59
2017-11-30T03:50:05.056Z,88.64
2017-11-30T03:51:05.068Z,88.49
2017-11-30T03:52:05.082Z,88.30
2017-11-30T03:53:05.092Z,88.21
2017-11-30T03:54:05.970Z,88.30
2017-11-30T03:55:05.122Z,88.59
2017-11-30T03:56:05.133Z,87.92
2017-11-30T03:57:05.148Z,87.64
2017-11-30T03:58:05.156Z,87.73
2017-11-30T03:59:05.171Z,87.73
2017-11-30T04:00:05.185Z,87.83
2017-11-30T04:01:05.199Z,87.92
2017-11-30T04:02:05.213Z,87.83
2017-11-30T04:03:05.224Z,88.11
2017-11-30T04:04:05.235Z,87.83
2017-11-30T04:05:05.247Z,88.17
2017-11-30T04:06:05.260Z,88.92
2017-11-30T04:07:05.276Z,88.82
2017-11-30T04:08:05.286Z,88.73
2017-11-30T04:09:05.301Z,88.92
2017-11-30T04:10:05.318Z,88.92
2017-11-30T04:11:05.331Z,88.49
2017-11-30T04:12:05.339Z,88.17
2017-11-30T04:13:05.354Z,88.11
2017-11-30T04:14:05.375Z,88.21
2017-11-30T04:15:05.378Z,87.73
2017-11-30T04:16:05.393Z,87.92
2017-11-30T04:17:05.403Z,87.92
2017-11-30T04:18:05.419Z,87.83
2017-11-30T04:19:05.435Z,87.07
2017-11-30T04:20:05.443Z,87.54
2017-11-30T04:21:05.458Z,88.21
2017-11-30T04:22:05.469Z,88.02
2017-11-30T04:23:05.484Z,87.59
2017-11-30T04:24:05.495Z,88.30
2017-11-30T04:25:05.513Z,88.26
2017-11-30T04:26:05.527Z,88.17
2017-11-30T04:27:05.533Z,88.35
2017-11-30T04:28:05.555Z,88.21
2017-11-30T04:29:05.565Z,88.40
2017-11-30T04:30:05.576Z,88.11
2017-11-30T04:31:05.589Z,88.40
2017-11-30T04:32:05.597Z,88.02
2017-11-30T04:33:05.615Z,88.21
2017-11-30T04:34:05.625Z,88.30
2017-11-30T04:35:05.643Z,88.40
2017-11-30T04:36:05.654Z,87.54
2017-11-30T04:37:05.668Z,87.16
2017-11-30T04:38:05.679Z,88.11
2017-11-30T04:39:05.688Z,87.83
2017-11-30T04:40:05.703Z,88.64
2017-11-30T04:41:05.715Z,88.35
2017-11-30T04:42:05.730Z,88.45
2017-11-30T04:43:05.745Z,88.73
2017-11-30T04:44:05.768Z,88.68
2017-11-30T04:45:05.776Z,88.21
2017-11-30T04:46:05.780Z,88.21
2017-11-30T04:47:05.794Z,88.07
2017-11-30T04:48:05.806Z,88.64
2017-11-30T04:49:05.820Z,89.58
2017-11-30T04:50:05.854Z,90.25
2017-11-30T04:51:05.846Z,91.19
2017-11-30T04:52:05.860Z,90.53
2017-11-30T04:53:05.872Z,90.15
2017-11-30T04:54:05.892Z,89.68
2017-11-30T04:55:05.916Z,89.77
2017-11-30T04:56:05.923Z,89.68
2017-11-30T04:57:05.923Z,89.58
2017-11-30T04:58:05.937Z,89.49
2017-11-30T04:59:05.960Z,88.78
2017-11-30T05:00:05.963Z,88.11
2017-11-30T05:01:05.978Z,88.26
2017-11-30T05:02:05.996Z,89.20
2017-11-30T05:03:06.002Z,89.96
2017-11-30T05:04:06.017Z,89.58
2017-11-30T05:05:06.027Z,89.49
2017-11-30T05:06:06.040Z,89.77
2017-11-30T05:07:06.050Z,89.87
2017-11-30T05:08:06.073Z,89.58
2017-11-30T05:09:06.081Z,89.11
2017-11-30T05:10:06.093Z,89.01
2017-11-30T05:11:06.111Z,89.49
2017-11-30T05:12:06.123Z,89.39
2017-11-30T05:13:06.134Z,89.87
2017-11-30T05:14:06.143Z,89.68
2017-11-30T05:15:06.156Z,90.44
2017-11-30T05:16:06.168Z,91.38
2017-11-30T05:17:06.184Z,91.19
2017-11-30T05:18:06.196Z,90.44
2017-11-30T05:19:06.210Z,89.87
2017-11-30T05:20:06.220Z,89.49
2017-11-30T05:21:06.234Z,89.87
2017-11-30T05:22:06.250Z,89.30
2017-11-30T05:23:06.261Z,89.15
2017-11-30T05:24:06.277Z,89.30
2017-11-30T05:25:06.288Z,89.11
2017-11-30T05:26:06.300Z,89.20
2017-11-30T05:27:06.315Z,89.01
2017-11-30T05:28:06.324Z,89.06
2017-11-30T05:29:06.338Z,88.54
2017-11-30T05:30:06.355Z,88.68
2017-11-30T05:31:06.365Z,88.59
2017-11-30T05:32:06.373Z,88.40
2017-11-30T05:33:06.388Z,87.92
2017-11-30T05:34:06.403Z,88.02
2017-11-30T05:35:06.415Z,88.02
2017-11-30T05:36:06.428Z,88.11
2017-11-30T05:37:06.439Z,88.49
2017-11-30T05:38:06.454Z,88.02
2017-11-30T05:39:06.468Z,88.02
2017-11-30T05:40:06.477Z,88.21
2017-11-30T05:41:07.461Z,88.40
2017-11-30T05:42:06.510Z,88.02
2017-11-30T05:43:06.522Z,87.73
2017-11-30T05:44:06.531Z,87.35
2017-11-30T05:45:06.545Z,87.54
2017-11-30T05:46:06.558Z,88.02
2017-11-30T05:47:06.570Z,87.73
2017-11-30T05:48:06.583Z,87.45
2017-11-30T05:49:06.599Z,87.07
2017-11-30T05:50:06.608Z,87.26
2017-11-30T05:51:06.621Z,87.92
2017-11-30T05:52:06.638Z,87.73
2017-11-30T05:53:06.653Z,87.64
2017-11-30T05:54:06.665Z,87.83
2017-11-30T05:55:06.680Z,87.64
2017-11-30T05:56:06.696Z,87.83
2017-11-30T05:57:06.712Z,87.16
2017-11-30T05:58:06.718Z,88.02
2017-11-30T05:59:06.729Z,87.83
2017-11-30T06:00:06.741Z,87.64
2017-11-30T06:01:06.754Z,87.45
2017-11-30T06:02:06.767Z,88.02
2017-11-30T06:03:06.778Z,88.11
2017-11-30T06:04:06.791Z,87.16
2017-11-30T06:05:06.805Z,87.26
2017-11-30T06:06:06.831Z,86.98
2017-11-30T06:07:06.837Z,86.79
2017-11-30T06:08:06.845Z,86.79
2017-11-30T06:09:06.857Z,86.31
2017-11-30T06:10:06.876Z,86.31
2017-11-30T06:11:06.881Z,86.03
2017-11-30T06:12:06.897Z,86.60
2017-11-30T06:13:06.911Z,87.35
2017-11-30T06:14:06.930Z,86.88
2017-11-30T06:15:06.936Z,86.60
2017-11-30T06:16:06.961Z,86.69
2017-11-30T06:17:06.968Z,86.79
2017-11-30T06:18:06.976Z,86.79
2017-11-30T06:19:06.993Z,86.79
2017-11-30T06:20:07.001Z,87.26
2017-11-30T06:21:07.018Z,87.16
2017-11-30T06:22:07.037Z,87.92
2017-11-30T06:23:07.046Z,87.83
2017-11-30T06:24:07.075Z,88.49
2017-11-30T06:25:07.947Z,88.49
2017-11-30T06:26:07.083Z,88.30
2017-11-30T06:27:07.092Z,88.17
2017-11-30T06:28:07.108Z,89.30
2017-11-30T06:29:07.123Z,89.49
2017-11-30T06:30:07.135Z,90.06
2017-11-30T06:31:07.167Z,89.68
2017-11-30T06:32:07.163Z,89.49
2017-11-30T06:33:07.179Z,89.77
2017-11-30T06:34:07.191Z,89.87
2017-11-30T06:35:07.201Z,89.68
2017-11-30T06:36:07.213Z,88.92
2017-11-30T06:37:07.223Z,88.02
2017-11-30T06:38:07.239Z,88.49
2017-11-30T06:39:07.251Z,87.54
2017-11-30T06:40:07.265Z,87.73
2017-11-30T06:41:07.280Z,88.54
2017-11-30T06:42:07.293Z,89.11
2017-11-30T06:43:07.315Z,89.68
2017-11-30T06:44:07.318Z,89.58
2017-11-30T06:45:07.330Z,89.77
2017-11-30T06:46:07.344Z,89.49
2017-11-30T06:47:07.352Z,89.58
2017-11-30T06:48:07.369Z,89.77
2017-11-30T06:49:07.383Z,88.92
2017-11-30T06:50:07.396Z,89.39
2017-11-30T06:51:07.406Z,90.06
2017-11-30T06:52:07.422Z,89.30
2017-11-30T06:53:07.444Z,89.06
2017-11-30T06:54:07.447Z,89.06
2017-11-30T06:55:07.458Z,88.68
2017-11-30T06:56:07.469Z,88.02
2017-11-30T06:57:07.489Z,87.98
2017-11-30T06:58:07.498Z,88.45
2017-11-30T06:59:07.508Z,87.92
2017-11-30T07:00:08.448Z,88.11
2017-11-30T07:01:07.542Z,87.16
2017-11-30T07:02:07.553Z,87.35
2017-11-30T07:03:07.578Z,86.88
2017-11-30T07:04:07.574Z,87.45
2017-11-30T07:05:07.589Z,88.02
2017-11-30T07:06:07.605Z,88.11
2017-11-30T07:07:07.614Z,87.83
2017-11-30T07:08:07.638Z,87.16
2017-11-30T07:09:07.641Z,87.45
2017-11-30T07:10:07.657Z,87.69
2017-11-30T07:11:07.669Z,87.92
2017-11-30T07:12:07.684Z,87.54
2017-11-30T07:13:07.692Z,87.26
2017-11-30T07:14:07.710Z,87.07
2017-11-30T07:15:07.736Z,87.26
2017-11-30T07:16:07.733Z,86.88
2017-11-30T07:17:07.743Z,86.79
2017-11-30T07:18:07.761Z,87.16
2017-11-30T07:19:07.771Z,86.79
2017-11-30T07:20:07.784Z,87.16
2017-11-30T07:21:07.819Z,86.98
2017-11-30T07:22:07.812Z,86.60
2017-11-30T07:23:07.824Z,86.31
2017-11-30T07:24:07.836Z,86.31
2017-11-30T07:25:07.847Z,86.03
2017-11-30T07:26:07.859Z,85.84
2017-11-30T07:27:07.881Z,86.12
2017-11-30T07:28:07.938Z,86.31
2017-11-30T07:29:07.899Z,86.03
2017-11-30T07:30:07.916Z,86.22
2017-11-30T07:31:07.925Z,86.31
2017-11-30T07:32:07.938Z,86.31
2017-11-30T07:33:07.952Z,86.69
2017-11-30T07:34:07.966Z,86.98
2017-11-30T07:35:07.979Z,86.79
2017-11-30T07:36:07.993Z,86.69
2017-11-30T07:37:08.002Z,86.31
2017-11-30T07:38:08.936Z,86.31
2017-11-30T07:39:08.030Z,86.88
2017-11-30T07:40:08.046Z,86.88
2017-11-30T07:41:08.060Z,86.69
2017-11-30T07:42:08.070Z,86.60
2017-11-30T07:43:08.087Z,86.60
2017-11-30T07:44:08.094Z,86.03
2017-11-30T07:45:08.112Z,86.12
2017-11-30T07:46:08.123Z,86.60
2017-11-30T07:47:08.182Z,86.60
2017-11-30T07:48:08.148Z,86.31
2017-11-30T07:49:08.160Z,87.40
2017-11-30T07:50:08.173Z,88.54
2017-11-30T07:51:08.183Z,88.73
2017-11-30T07:52:08.205Z,88.40
2017-11-30T07:53:08.212Z,87.35
2017-11-30T07:54:08.232Z,87.16
2017-11-30T07:55:08.236Z,88.07
2017-11-30T07:56:08.249Z,88.11
2017-11-30T07:57:08.278Z,87.73
2017-11-30T07:58:08.277Z,87.73
2017-11-30T07:59:08.289Z,87.54
2017-11-30T08:00:08.307Z,88.02
2017-11-30T08:01:08.314Z,87.78
2017-11-30T08:02:08.333Z,88.73
2017-11-30T08:03:08.350Z,88.11
2017-11-30T08:04:08.353Z,87.45
2017-11-30T08:05:08.371Z,87.26
2017-11-30T08:06:08.431Z,86.88
2017-11-30T08:07:08.394Z,86.88
2017-11-30T08:08:08.405Z,87.78
2017-11-30T08:09:08.418Z,88.07
2017-11-30T08:10:08.453Z,88.21
2017-11-30T08:11:08.452Z,87.73
2017-11-30T08:12:08.461Z,87.26
2017-11-30T08:13:08.472Z,86.79
2017-11-30T08:14:08.488Z,86.22
2017-11-30T08:15:08.494Z,86.12
2017-11-30T08:16:08.512Z,85.27
2017-11-30T08:17:08.537Z,85.27
2017-11-30T08:18:08.537Z,85.36
2017-11-30T08:19:08.549Z,85.17
2017-11-30T08:20:08.562Z,85.55
2017-11-30T08:21:08.575Z,85.74
2017-11-30T08:22:08.591Z,86.12
2017-11-30T08:23:08.601Z,85.65
2017-11-30T08:24:08.615Z,85.93
2017-11-30T08:25:08.628Z,86.31
2017-11-30T08:26:08.643Z,86.50
2017-11-30T08:27:08.653Z,86.22
2017-11-30T08:28:08.665Z,86.50
2017-11-30T08:29:08.685Z,86.22
2017-11-30T08:30:08.694Z,86.31
2017-11-30T08:31:08.705Z,86.03
2017-11-30T08:32:08.719Z,85.93
2017-11-30T08:33:08.735Z,86.74
2017-11-30T08:34:08.747Z,86.83
2017-11-30T08:35:08.762Z,86.79
2017-11-30T08:36:08.772Z,86.79
2017-11-30T08:37:08.787Z,86.22
2017-11-30T08:38:08.800Z,87.07
2017-11-30T08:39:08.810Z,86.69
2017-11-30T08:40:08.824Z,87.26
2017-11-30T08:41:08.839Z,86.93
2017-11-30T08:42:08.851Z,87.40
2017-11-30T08:43:08.861Z,87.45
2017-11-30T08:44:08.879Z,87.54
2017-11-30T08:45:08.891Z,87.35
2017-11-30T08:46:08.906Z,86.83
2017-11-30T08:47:08.914Z,87.59
2017-11-30T08:48:09.122Z,87.50
2017-11-30T08:49:08.941Z,88.17
2017-11-30T08:50:08.952Z,87.78
2017-11-30T08:51:08.962Z,87.98
2017-11-30T08:52:08.977Z,87.73
2017-11-30T08:53:08.991Z,87.26
2017-11-30T08:54:09.007Z,87.16
2017-11-30T08:55:09.016Z,86.79
2017-11-30T08:56:09.029Z,86.55
2017-11-30T08:57:09.042Z,86.88
2017-11-30T08:58:09.065Z,86.50
2017-11-30T08:59:09.183Z,86.12
2017-11-30T09:00:09.083Z,86.03
2017-11-30T09:01:09.096Z,86.22
2017-11-30T09:02:09.117Z,85.74
2017-11-30T09:03:09.123Z,85.74
2017-11-30T09:04:09.132Z,86.41
2017-11-30T09:05:09.147Z,85.93
2017-11-30T09:06:09.161Z,85.46
2017-11-30T09:07:09.171Z,84.99
2017-11-30T09:08:09.186Z,84.89
2017-11-30T09:09:09.203Z,84.70
2017-11-30T09:10:09.217Z,84.61
2017-11-30T09:11:09.227Z,84.42
2017-11-30T09:12:09.244Z,84.42
2017-11-30T09:13:09.251Z,84.51
2017-11-30T09:14:09.266Z,84.80
2017-11-30T09:15:09.280Z,85.17
2017-11-30T09:16:09.292Z,85.17
2017-11-30T09:17:09.303Z,84.70
2017-11-30T09:18:09.318Z,84.42
2017-11-30T09:19:09.331Z,84.36
2017-11-30T09:20:09.344Z,83.89
2017-11-30T09:21:09.367Z,83.70
2017-11-30T09:22:09.375Z,83.51
2017-11-30T09:23:09.393Z,83.70
2017-11-30T09:24:09.395Z,83.51
2017-11-30T09:25:09.555Z,82.94
2017-11-30T09:26:09.424Z,83.04
2017-11-30T09:27:09.437Z,82.47
2017-11-30T09:28:09.451Z,82.47
2017-11-30T09:29:09.482Z,82.56
2017-11-30T09:30:09.486Z,83.04
2017-11-30T09:31:09.488Z,82.56
2017-11-30T09:32:09.519Z,83.32
2017-11-30T09:33:09.519Z,82.56
2017-11-30T09:34:09.529Z,82.37
2017-11-30T09:35:09.549Z,82.28
2017-11-30T09:36:09.572Z,82.56
2017-11-30T09:37:09.573Z,82.18
2017-11-30T09:38:09.588Z,82.37
2017-11-30T09:39:09.598Z,81.71
2017-11-30T09:40:09.612Z,81.81
2017-11-30T09:41:09.630Z,81.71
2017-11-30T09:42:09.644Z,81.24
2017-11-30T09:43:09.653Z,81.27
2017-11-30T09:44:09.679Z,81.14
2017-11-30T09:45:09.682Z,81.14
2017-11-30T09:46:09.699Z,81.43
2017-11-30T09:47:09.712Z,81.99
2017-11-30T09:48:09.720Z,81.81
2017-11-30T09:49:09.737Z,81.52
2017-11-30T09:50:09.750Z,81.33
2017-11-30T09:51:09.762Z,81.90
2017-11-30T09:52:09.779Z,82.28
2017-11-30T09:53:09.791Z,82.37
2017-11-30T09:54:09.806Z,81.71
2017-11-30T09:55:09.818Z,81.43
2017-11-30T09:56:09.831Z,82.28
2017-11-30T09:57:09.846Z,82.47
2017-11-30T09:58:09.864Z,83.04
2017-11-30T09:59:09.873Z,82.85
2017-11-30T10:00:09.886Z,82.47
2017-11-30T10:01:09.899Z,81.99
2017-11-30T10:02:09.937Z,81.99
2017-11-30T10:03:09.925Z,81.81
2017-11-30T10:04:09.940Z,81.14
2017-11-30T10:05:09.956Z,81.62
2017-11-30T10:06:09.980Z,81.14
2017-11-30T10:07:09.981Z,81.05
2017-11-30T10:08:09.996Z,81.14
2017-11-30T10:09:10.007Z,81.81
2017-11-30T10:10:10.022Z,81.62
2017-11-30T10:11:10.033Z,81.14
2017-11-30T10:12:10.054Z,81.47
2017-11-30T10:13:10.063Z,80.80
2017-11-30T10:14:10.075Z,80.71
2017-11-30T10:15:10.102Z,80.80
2017-11-30T10:16:10.104Z,79.95
2017-11-30T10:17:10.118Z,79.95
2017-11-30T10:18:10.136Z,80.14
2017-11-30T10:19:10.180Z,80.86
2017-11-30T10:20:10.157Z,81.24
2017-11-30T10:21:10.171Z,81.14
2017-11-30T10:22:10.187Z,81.62
2017-11-30T10:23:10.199Z,81.71
2017-11-30T10:24:10.212Z,81.81
2017-11-30T10:25:10.228Z,81.52
2017-11-30T10:26:10.242Z,81.05
2017-11-30T10:27:10.253Z,81.43
2017-11-30T10:28:10.266Z,80.71
2017-11-30T10:29:10.286Z,80.67
2017-11-30T10:30:10.299Z,81.05
2017-11-30T10:31:10.310Z,81.52
2017-11-30T10:32:10.327Z,81.14
2017-11-30T10:33:10.336Z,81.90
2017-11-30T10:34:10.370Z,81.90
2017-11-30T10:35:10.366Z,81.43
2017-11-30T10:36:10.386Z,80.86
2017-11-30T10:37:10.394Z,81.52
2017-11-30T10:38:10.407Z,81.33
2017-11-30T10:39:10.554Z,81.71
2017-11-30T10:40:10.434Z,81.33
2017-11-30T10:41:10.457Z,82.09
2017-11-30T10:42:10.461Z,82.37
2017-11-30T10:43:10.476Z,82.18
2017-11-30T10:44:10.490Z,82.18
2017-11-30T10:45:10.503Z,82.56
2017-11-30T10:46:10.518Z,83.04
2017-11-30T10:47:10.529Z,83.37
2017-11-30T10:48:10.543Z,84.13
2017-11-30T10:49:10.562Z,84.32
2017-11-30T10:50:10.572Z,84.27
2017-11-30T10:51:10.586Z,83.51
2017-11-30T10:52:10.598Z,83.51
2017-11-30T10:53:10.615Z,82.85
2017-11-30T10:54:10.629Z,82.94
2017-11-30T10:55:10.638Z,82.47
2017-11-30T10:56:10.651Z,82.66
2017-11-30T10:57:10.666Z,82.94
2017-11-30T10:58:10.679Z,82.04
2017-11-30T10:59:10.693Z,81.71
2017-11-30T11:00:10.707Z,82.09
2017-11-30T11:01:10.717Z,82.37
2017-11-30T11:02:10.734Z,82.47
2017-11-30T11:03:10.744Z,82.56
2017-11-30T11:04:10.759Z,82.90
2017-11-30T11:05:10.818Z,83.23
2017-11-30T11:06:10.788Z,82.85
2017-11-30T11:07:10.801Z,82.66
2017-11-30T11:08:10.817Z,82.66
2017-11-30T11:09:10.824Z,81.99
2017-11-30T11:10:10.841Z,82.75
2017-11-30T11:11:10.851Z,83.51
2017-11-30T11:12:10.867Z,83.51
2017-11-30T11:13:10.880Z,82.66
2017-11-30T11:14:10.892Z,82.37
2017-11-30T11:15:10.909Z,82.37
2017-11-30T11:16:10.919Z,82.66
2017-11-30T11:17:10.934Z,82.75
2017-11-30T11:18:10.947Z,83.51
2017-11-30T11:19:10.960Z,83.61
2017-11-30T11:20:10.973Z,83.04
2017-11-30T11:21:10.986Z,82.75
2017-11-30T11:22:10.999Z,83.13
2017-11-30T11:23:11.020Z,82.85
2017-11-30T11:24:11.029Z,82.47
2017-11-30T11:25:11.040Z,82.66
2017-11-30T11:26:11.055Z,81.99
2017-11-30T11:27:11.071Z,81.99
2017-11-30T11:28:11.081Z,82.37
2017-11-30T11:29:11.100Z,82.75
2017-11-30T11:30:11.109Z,82.28
2017-11-30T11:31:11.119Z,82.37
2017-11-30T11:32:11.134Z,82.18
2017-11-30T11:33:11.147Z,82.66
2017-11-30T11:34:11.159Z,82.66
2017-11-30T11:35:11.177Z,82.75
2017-11-30T11:36:11.192Z,81.90
2017-11-30T11:37:11.214Z,82.66
2017-11-30T11:38:11.215Z,82.52
2017-11-30T11:39:11.229Z,83.94
2017-11-30T11:40:11.244Z,84.84
2017-11-30T11:41:11.259Z,83.70
2017-11-30T11:42:11.270Z,83.51
2017-11-30T11:43:11.283Z,83.13
2017-11-30T11:44:11.296Z,83.09
2017-11-30T11:45:11.311Z,83.61
2017-11-30T11:46:11.323Z,83.04
2017-11-30T11:47:11.335Z,83.51
2017-11-30T11:48:11.349Z,83.61
2017-11-30T11:49:11.364Z,82.85
2017-11-30T11:50:11.377Z,83.56
2017-11-30T11:51:11.392Z,83.04
2017-11-30T11:52:11.404Z,83.75
2017-11-30T11:53:11.416Z,84.32
2017-11-30T11:54:11.430Z,85.08
2017-11-30T11:55:11.440Z,84.42
2017-11-30T11:56:11.454Z,84.32
2017-11-30T11:57:11.473Z,84.99
2017-11-30T11:58:11.484Z,84.13
2017-11-30T11:59:11.498Z,83.56
2017-11-30T12:00:11.512Z,83.51
2017-11-30T12:01:11.523Z,83.47
2017-11-30T12:02:11.537Z,83.47
2017-11-30T12:03:11.551Z,83.94
2017-11-30T12:04:11.571Z,84.51
2017-11-30T12:05:11.577Z,85.65
2017-11-30T12:06:11.588Z,86.69
2017-11-30T12:07:11.602Z,86.50
2017-11-30T12:08:11.616Z,85.55
2017-11-30T12:09:11.627Z,85.41
2017-11-30T12:10:11.640Z,85.08
2017-11-30T12:11:11.655Z,85.36
2017-11-30T12:12:11.666Z,84.94
2017-11-30T12:13:11.684Z,84.61
2017-11-30T12:14:11.696Z,84.55
2017-11-30T12:15:11.716Z,84.46
2017-11-30T12:16:11.726Z,84.36
2017-11-30T12:17:11.736Z,83.80
2017-11-30T12:18:11.748Z,83.61
2017-11-30T12:19:11.758Z,83.51
2017-11-30T12:20:11.775Z,85.36
2017-11-30T12:21:11.789Z,86.31
2017-11-30T12:22:11.805Z,86.31
2017-11-30T12:23:11.813Z,86.50
2017-11-30T12:24:11.829Z,86.22
2017-11-30T12:25:11.841Z,86.60
2017-11-30T12:26:11.856Z,86.50
2017-11-30T12:27:11.864Z,86.31
2017-11-30T12:28:11.879Z,85.97
2017-11-30T12:29:11.923Z,85.31
2017-11-30T12:30:11.904Z,85.08
2017-11-30T12:31:11.925Z,85.08
2017-11-30T12:32:11.984Z,85.27
2017-11-30T12:33:11.962Z,85.93
2017-11-30T12:34:11.961Z,87.07
2017-11-30T12:35:11.971Z,87.45
2017-11-30T12:36:11.987Z,87.54
2017-11-30T12:37:11.999Z,87.73
2017-11-30T12:38:12.012Z,86.79
2017-11-30T12:39:12.023Z,85.93
2017-11-30T12:40:12.041Z,85.27
2017-11-30T12:41:12.056Z,85.17
2017-11-30T12:42:12.070Z,85.46
2017-11-30T12:43:12.077Z,85.46
2017-11-30T12:44:12.089Z,85.17
2017-11-30T12:45:12.106Z,85.17
2017-11-30T12:46:12.116Z,86.31
2017-11-30T12:47:12.129Z,87.26
2017-11-30T12:48:12.148Z,86.79
2017-11-30T12:49:12.156Z,86.88
2017-11-30T12:50:12.169Z,86.69
2017-11-30T12:51:12.184Z,86.79
2017-11-30T12:52:12.334Z,86.98